createdAt,value
2022-10-17T00:00:50.424Z,2.47
2022-10-17T00:03:20.020Z,1.88
2022-10-17T00:05:50.913Z,1.92
2022-10-17T00:08:20.942Z,2.30
2022-10-17T00:10:58.686Z,2.05
2022-10-17T00:13:28.986Z,1.70
2022-10-17T00:16:01.342Z,1.88
2022-10-17T00:18:30.875Z,2.00
2022-10-17T00:21:00.304Z,1.67
2022-10-17T00:23:30.593Z,2.28
2022-10-17T00:26:03.713Z,1.67
2022-10-17T00:28:33.365Z,2.38
2022-10-17T00:31:07.621Z,1.63
2022-10-17T00:33:39.017Z,1.73
2022-10-17T00:36:09.326Z,1.77
2022-10-17T00:38:39.103Z,1.60
2022-10-17T00:41:08.645Z,1.92
2022-10-17T00:43:52.128Z,1.92
2022-10-17T00:46:25.379Z,1.73
2022-10-17T00:48:56.320Z,1.52
2022-10-17T00:51:32.253Z,2.10
2022-10-17T00:54:02.362Z,1.60
2022-10-17T00:56:34.850Z,1.27
2022-10-17T01:01:59.752Z,1.77
2022-10-17T01:04:29.747Z,1.38
2022-10-17T01:06:59.171Z,2.03
2022-10-17T01:09:29.230Z,1.80
2022-10-17T01:12:00.730Z,2.08
2022-10-17T01:14:34.224Z,2.13
2022-10-17T01:17:09.105Z,1.45
2022-10-17T01:19:46.915Z,1.05
2022-10-17T01:22:20.667Z,1.30
2022-10-17T01:24:51.881Z,1.83
2022-10-17T01:27:36.190Z,1.92
2022-10-17T01:30:21.018Z,1.67
2022-10-17T01:32:55.961Z,1.70
2022-10-17T01:35:29.402Z,1.90
2022-10-17T01:38:02.009Z,1.80
2022-10-17T01:40:33.887Z,1.55
2022-10-17T01:43:07.577Z,1.58
2022-10-17T01:45:41.244Z,1.40
2022-10-17T01:48:16.195Z,1.50
2022-10-17T01:50:48.547Z,1.70
2022-10-17T01:53:21.194Z,1.38
2022-10-17T01:55:51.786Z,1.23
2022-10-17T01:58:24.845Z,2.05
2022-10-17T02:00:54.809Z,2.05
2022-10-17T02:03:27.438Z,1.70
2022-10-17T02:05:57.085Z,1.73
2022-10-17T02:08:30.666Z,1.88
2022-10-17T02:11:02.261Z,1.83
2022-10-17T02:13:37.054Z,2.45
2022-10-17T02:16:19.277Z,3.30
2022-10-17T02:19:10.179Z,3.17
2022-10-17T02:21:43.630Z,2.30
2022-10-17T02:24:20.919Z,2.70
2022-10-17T02:26:53.002Z,3.70
2022-10-17T02:29:24.092Z,2.67
2022-10-17T02:31:57.119Z,2.28
2022-10-17T02:34:32.727Z,1.65
2022-10-17T02:37:04.861Z,2.10
2022-10-17T02:39:34.746Z,1.80
2022-10-17T02:42:06.509Z,1.75
2022-10-17T02:44:36.559Z,1.70
2022-10-17T02:47:11.964Z,2.00
2022-10-17T02:49:46.692Z,1.67
2022-10-17T02:52:18.438Z,1.98
2022-10-17T02:54:51.115Z,2.20
2022-10-17T02:57:24.214Z,1.90
2022-10-17T02:59:53.974Z,1.67
2022-10-17T03:02:23.439Z,2.55
2022-10-17T03:04:56.475Z,1.83
2022-10-17T03:07:25.904Z,1.80
2022-10-17T03:09:55.331Z,1.50
2022-10-17T03:12:25.456Z,1.90
2022-10-17T03:14:55.792Z,1.70
2022-10-17T03:17:25.978Z,2.05
2022-10-17T03:19:58.036Z,1.98
2022-10-17T03:22:28.082Z,1.80
2022-10-17T03:24:58.075Z,1.73
2022-10-17T03:27:28.093Z,1.90
2022-10-17T03:29:57.853Z,1.77
2022-10-17T03:32:27.638Z,1.63
2022-10-17T03:34:59.707Z,1.77
2022-10-17T03:37:29.479Z,1.65
2022-10-17T03:39:59.236Z,2.25
2022-10-17T03:42:28.727Z,2.25
2022-10-17T03:44:58.174Z,1.52
2022-10-17T03:47:27.958Z,1.83
2022-10-17T03:50:01.254Z,1.67
2022-10-17T03:52:33.461Z,1.60
2022-10-17T03:55:03.536Z,1.92
2022-10-17T03:57:33.080Z,1.45
2022-10-17T04:00:02.620Z,1.52
2022-10-17T04:02:32.619Z,1.85
2022-10-17T04:05:04.829Z,2.05
2022-10-17T04:07:34.363Z,1.85
2022-10-17T04:10:04.590Z,1.55
2022-10-17T04:12:35.042Z,1.73
2022-10-17T04:15:04.583Z,1.90
2022-10-17T04:17:37.318Z,1.63
2022-10-17T04:20:12.646Z,2.08
2022-10-17T04:22:42.160Z,1.83
2022-10-17T04:25:12.063Z,1.42
2022-10-17T04:27:45.688Z,2.20
2022-10-17T04:30:16.305Z,1.63
2022-10-17T04:32:45.984Z,1.60
2022-10-17T04:35:23.467Z,2.38
2022-10-17T04:37:59.973Z,2.03
2022-10-17T04:40:29.486Z,1.67
2022-10-17T04:42:59.064Z,1.85
2022-10-17T04:45:35.855Z,2.03
2022-10-17T04:48:07.738Z,1.88
2022-10-17T04:50:39.896Z,1.67
2022-10-17T04:53:33.895Z,2.28
2022-10-17T04:56:03.938Z,2.15
2022-10-17T04:58:33.404Z,1.38
2022-10-17T05:01:06.937Z,2.38
2022-10-17T05:03:37.358Z,1.90
2022-10-17T05:06:10.841Z,1.70
2022-10-17T05:08:41.880Z,1.52
2022-10-17T05:11:18.707Z,2.42
2022-10-17T05:13:52.038Z,1.88
2022-10-17T05:16:21.986Z,2.08
2022-10-17T05:18:53.275Z,2.03
2022-10-17T05:21:27.142Z,1.90
2022-10-17T05:23:57.333Z,1.92
2022-10-17T05:26:27.545Z,2.45
2022-10-17T05:28:57.203Z,2.45
2022-10-17T05:31:28.283Z,2.08
2022-10-17T05:33:58.288Z,2.25
2022-10-17T05:36:30.548Z,1.92
2022-10-17T05:39:01.417Z,2.08
2022-10-17T05:41:32.136Z,2.17
2022-10-17T05:44:04.681Z,2.40
2022-10-17T05:46:44.297Z,2.17
2022-10-17T05:49:19.775Z,2.20
2022-10-17T05:52:05.034Z,2.25
2022-10-17T05:54:41.230Z,2.35
2022-10-17T05:57:11.010Z,2.13
2022-10-17T05:59:41.857Z,2.58
2022-10-17T06:02:15.762Z,2.75
2022-10-17T06:04:46.167Z,2.05
2022-10-17T06:07:19.619Z,2.08
2022-10-17T06:09:50.620Z,2.17
2022-10-17T06:12:20.493Z,2.40
2022-10-17T06:14:50.089Z,2.50
2022-10-17T06:17:19.693Z,2.10
2022-10-17T06:19:52.413Z,2.30
2022-10-17T06:22:24.579Z,2.25
2022-10-17T06:24:54.264Z,2.92
2022-10-17T06:27:23.816Z,2.85
2022-10-17T06:29:53.812Z,2.25
2022-10-17T06:32:23.663Z,2.95
2022-10-17T06:34:53.379Z,2.45
2022-10-17T06:37:25.654Z,2.55
2022-10-17T06:39:56.095Z,2.80
2022-10-17T06:42:26.064Z,2.65
2022-10-17T06:45:18.761Z,2.90
2022-10-17T06:48:17.474Z,2.70
2022-10-17T06:50:55.068Z,2.38
2022-10-17T06:53:32.953Z,2.28
2022-10-17T06:56:21.170Z,2.28
2022-10-17T06:59:02.049Z,2.72
2022-10-17T07:01:34.357Z,2.55
2022-10-17T07:04:06.280Z,2.30
2022-10-17T07:06:36.976Z,2.33
2022-10-17T07:09:22.980Z,2.88
2022-10-17T07:11:53.141Z,2.35
2022-10-17T07:14:22.610Z,2.90
2022-10-17T07:16:52.191Z,2.80
2022-10-17T07:19:24.746Z,2.38
2022-10-17T07:21:54.397Z,2.42
2022-10-17T07:24:27.209Z,2.45
2022-10-17T07:27:17.521Z,2.70
2022-10-17T07:29:47.201Z,2.60
2022-10-17T07:32:23.927Z,2.40
2022-10-17T07:34:54.539Z,2.42
2022-10-17T07:37:24.123Z,2.95
2022-10-17T07:40:00.004Z,2.90
2022-10-17T07:42:30.426Z,3.55
2022-10-17T07:45:00.918Z,3.67
2022-10-17T07:47:35.768Z,2.90
2022-10-17T07:50:07.288Z,3.30
2022-10-17T07:52:36.995Z,2.45
2022-10-17T07:55:10.507Z,2.83
2022-10-17T07:57:40.368Z,2.38
2022-10-17T08:00:10.756Z,2.60
2022-10-17T08:02:44.095Z,2.53
2022-10-17T08:05:13.540Z,2.53
2022-10-17T08:07:43.139Z,2.50
2022-10-17T08:10:16.480Z,2.53
2022-10-17T08:12:45.987Z,2.15
2022-10-17T08:15:15.582Z,2.10
2022-10-17T08:17:45.155Z,2.72
2022-10-17T08:20:14.741Z,2.25
2022-10-17T08:22:44.193Z,2.30
2022-10-17T08:25:16.247Z,2.17
2022-10-17T08:27:45.816Z,2.20
2022-10-17T08:30:15.333Z,2.20
2022-10-17T08:32:45.054Z,2.13
2022-10-17T08:35:14.887Z,2.03
2022-10-17T08:37:44.499Z,2.45
2022-10-17T08:40:20.159Z,2.30
2022-10-17T08:42:56.717Z,1.88
2022-10-17T08:45:29.994Z,1.45
2022-10-17T08:48:01.777Z,1.40
2022-10-17T08:50:33.958Z,1.80
2022-10-17T08:53:05.989Z,1.60
2022-10-17T08:55:42.858Z,1.80
2022-10-17T08:58:18.317Z,1.35
2022-10-17T09:00:50.889Z,1.35
2022-10-17T09:03:26.854Z,1.27
2022-10-17T09:05:59.165Z,1.52
2022-10-17T09:08:35.318Z,1.45
2022-10-17T09:11:12.636Z,1.13
2022-10-17T09:13:51.187Z,1.40
2022-10-17T09:16:32.820Z,1.27
2022-10-17T09:19:05.960Z,1.50
2022-10-17T09:21:39.631Z,1.63
2022-10-17T09:24:16.109Z,1.20
2022-10-17T09:26:48.914Z,1.90
2022-10-17T09:29:21.311Z,1.70
2022-10-17T09:31:54.017Z,1.60
2022-10-17T09:34:26.689Z,1.75
2022-10-17T09:36:57.048Z,1.33
2022-10-17T09:39:31.815Z,1.92
2022-10-17T09:42:04.461Z,1.75
2022-10-17T09:44:34.830Z,1.75
2022-10-17T09:47:12.492Z,1.27
2022-10-17T09:49:43.144Z,1.77
2022-10-17T09:52:14.400Z,1.48
2022-10-17T09:54:45.736Z,1.30
2022-10-17T09:57:18.602Z,1.30
2022-10-17T09:59:49.407Z,1.60
2022-10-17T10:02:20.168Z,1.90
2022-10-17T10:05:04.309Z,1.95
2022-10-17T10:07:35.353Z,1.80
2022-10-17T10:10:05.681Z,1.10
2022-10-17T10:12:38.767Z,1.63
2022-10-17T10:15:23.062Z,1.50
2022-10-17T10:17:52.611Z,2.05
2022-10-17T10:20:30.899Z,1.13
2022-10-17T10:23:10.379Z,1.60
2022-10-17T10:25:39.894Z,1.40
2022-10-17T10:28:15.581Z,1.60
2022-10-17T10:30:49.679Z,1.05
2022-10-17T10:33:21.631Z,1.33
2022-10-17T10:35:56.720Z,1.50
2022-10-17T10:38:26.652Z,1.23
2022-10-17T10:40:57.412Z,1.40
2022-10-17T10:43:33.260Z,1.00
2022-10-17T10:46:03.411Z,1.70
2022-10-17T10:48:35.382Z,1.38
2022-10-17T10:51:07.243Z,1.58
2022-10-17T10:53:39.837Z,1.40
2022-10-17T10:56:12.651Z,1.67
2022-10-17T10:58:50.684Z,1.40
2022-10-17T11:01:34.274Z,1.85
2022-10-17T11:04:16.545Z,1.67
2022-10-17T11:06:47.041Z,1.80
2022-10-17T11:09:28.863Z,1.58
2022-10-17T11:12:03.297Z,1.48
2022-10-17T11:14:41.052Z,1.58
2022-10-17T11:17:14.890Z,2.30
2022-10-17T11:19:47.993Z,2.00
2022-10-17T11:22:18.791Z,1.55
2022-10-17T11:24:56.954Z,1.98
2022-10-17T11:27:27.193Z,1.90
2022-10-17T11:30:00.217Z,1.45
2022-10-17T11:32:34.030Z,1.95
2022-10-17T11:35:06.931Z,2.17
2022-10-17T11:37:40.633Z,1.70
2022-10-17T11:40:20.426Z,1.90
2022-10-17T11:42:55.667Z,1.65
2022-10-17T11:45:29.497Z,1.70
2022-10-17T11:48:03.206Z,1.55
2022-10-17T11:53:24.776Z,1.70
2022-10-17T11:55:55.525Z,1.95
2022-10-17T12:01:27.401Z,2.00
2022-10-17T12:04:14.904Z,1.50
2022-10-17T12:06:51.207Z,2.00
2022-10-17T12:09:23.145Z,2.42
2022-10-17T12:11:56.392Z,2.28
2022-10-17T12:14:43.300Z,1.63
2022-10-17T12:17:29.092Z,2.00
2022-10-17T12:20:13.557Z,2.10
2022-10-17T12:22:49.091Z,2.08
2022-10-17T12:25:20.755Z,1.90
2022-10-17T12:27:51.031Z,1.73
2022-10-17T12:30:25.168Z,1.75
2022-10-17T12:33:12.699Z,1.92
2022-10-17T12:35:44.936Z,1.90
2022-10-17T12:38:30.699Z,1.80
2022-10-17T12:41:04.656Z,1.48
2022-10-17T12:43:54.901Z,1.40
2022-10-17T12:46:39.438Z,2.05
2022-10-17T12:49:22.545Z,2.10
2022-10-17T12:52:07.046Z,1.70
2022-10-17T12:54:47.970Z,1.92
2022-10-17T12:57:35.113Z,1.98
2022-10-17T13:00:06.037Z,2.17
2022-10-17T13:02:36.217Z,1.60
2022-10-17T13:05:10.623Z,2.05
2022-10-17T13:07:43.803Z,1.90
2022-10-17T13:10:24.124Z,2.05
2022-10-17T13:12:55.054Z,2.00
2022-10-17T13:15:24.880Z,1.52
2022-10-17T13:18:02.785Z,1.95
2022-10-17T13:20:33.393Z,2.05
2022-10-17T13:23:02.903Z,1.60
2022-10-17T13:25:38.824Z,2.15
2022-10-17T13:28:14.286Z,2.10
2022-10-17T13:30:49.772Z,1.60
2022-10-17T13:33:36.246Z,1.77
2022-10-17T13:36:07.152Z,1.75
2022-10-17T13:38:40.341Z,1.20
2022-10-17T13:41:35.318Z,1.83
2022-10-17T13:44:07.329Z,1.92
2022-10-17T13:46:38.897Z,1.80
2022-10-17T13:49:13.667Z,2.05
2022-10-17T13:51:45.733Z,2.28
2022-10-17T13:54:22.345Z,2.45
2022-10-17T13:57:00.927Z,2.10
2022-10-17T13:59:32.761Z,2.13
2022-10-17T14:02:03.096Z,1.83
2022-10-17T14:04:50.285Z,1.90
2022-10-17T14:07:26.797Z,2.08
2022-10-17T14:09:56.597Z,1.77
2022-10-17T14:12:28.749Z,1.70
2022-10-17T14:15:10.067Z,1.83
2022-10-17T14:17:40.802Z,2.17
2022-10-17T14:20:40.703Z,1.90
2022-10-17T14:23:21.883Z,1.73
2022-10-17T14:25:51.745Z,1.70
2022-10-17T14:28:25.412Z,1.77
2022-10-17T14:30:57.676Z,2.00
2022-10-17T14:33:29.722Z,1.90
2022-10-17T14:36:00.405Z,2.30
2022-10-17T14:38:30.874Z,2.15
2022-10-17T14:41:23.537Z,1.60
2022-10-17T14:43:59.027Z,1.77
2022-10-17T14:46:28.711Z,1.60
2022-10-17T14:48:59.435Z,2.08
2022-10-17T14:51:32.567Z,1.60
2022-10-17T14:54:21.234Z,1.73
2022-10-17T14:56:52.798Z,1.58
2022-10-17T14:59:52.373Z,1.88
2022-10-17T15:02:16.240Z,1.42
2022-10-17T15:04:45.664Z,1.60
2022-10-17T15:07:18.617Z,1.83
2022-10-17T15:09:49.932Z,2.42
2022-10-17T15:12:20.415Z,1.58
2022-10-17T15:14:52.725Z,1.90
2022-10-17T15:17:23.406Z,2.30
2022-10-17T15:19:53.302Z,2.22
2022-10-17T15:22:23.121Z,2.15
2022-10-17T15:24:52.849Z,2.70
2022-10-17T15:27:23.264Z,1.90
2022-10-17T15:29:55.698Z,2.50
2022-10-17T15:32:25.233Z,1.38
2022-10-17T15:34:54.715Z,1.98
2022-10-17T15:37:25.131Z,2.40
2022-10-17T15:39:56.423Z,2.17
2022-10-17T15:42:29.203Z,2.22
2022-10-17T15:45:01.446Z,1.90
2022-10-17T15:47:33.640Z,1.83
2022-10-17T15:50:04.886Z,1.90
2022-10-17T15:52:34.482Z,1.75
2022-10-17T15:55:05.387Z,1.60
2022-10-17T15:57:39.499Z,1.88
2022-10-17T16:00:16.809Z,2.08
2022-10-17T16:02:46.773Z,1.83
2022-10-17T16:05:17.784Z,2.03
2022-10-17T16:07:48.452Z,1.60
2022-10-17T16:10:18.510Z,1.88
2022-10-17T16:12:50.162Z,1.50
2022-10-17T16:15:24.076Z,2.10
2022-10-17T16:17:53.629Z,2.15
2022-10-17T16:20:23.678Z,2.60
2022-10-17T16:22:59.764Z,2.25
2022-10-17T16:25:30.167Z,2.50
2022-10-17T16:28:00.444Z,2.42
2022-10-17T16:30:33.472Z,2.47
2022-10-17T16:33:04.189Z,2.20
2022-10-17T16:35:36.767Z,2.20
2022-10-17T16:38:07.381Z,2.13
2022-10-17T16:40:37.241Z,2.10
2022-10-17T16:43:06.814Z,2.70
2022-10-17T16:45:39.046Z,2.42
2022-10-17T16:48:08.859Z,2.53
2022-10-17T16:50:41.324Z,2.55
2022-10-17T16:53:10.798Z,2.33
2022-10-17T16:55:40.813Z,2.83
2022-10-17T16:58:10.255Z,2.28
2022-10-17T17:00:44.122Z,2.50
2022-10-17T17:03:13.704Z,2.33
2022-10-17T17:05:43.221Z,2.53
2022-10-17T17:08:12.838Z,2.50
2022-10-17T17:10:46.515Z,2.30
2022-10-17T17:13:16.014Z,2.97
2022-10-17T17:15:53.648Z,2.28
2022-10-17T17:18:23.186Z,2.45
2022-10-17T17:20:52.686Z,2.53
2022-10-17T17:23:22.173Z,2.28
2022-10-17T17:25:51.608Z,2.65
2022-10-17T17:28:21.105Z,2.55
2022-10-17T17:30:53.218Z,2.78
2022-10-17T17:33:23.015Z,2.60
2022-10-17T17:35:56.953Z,2.30
2022-10-17T17:38:26.901Z,2.28
2022-10-17T17:40:56.493Z,2.22
2022-10-17T17:43:26.314Z,3.13
2022-10-17T17:45:58.500Z,2.35
2022-10-17T17:48:27.988Z,2.30
2022-10-17T17:50:57.406Z,2.30
2022-10-17T17:53:26.894Z,2.42
2022-10-17T17:56:03.699Z,2.63
2022-10-17T17:58:33.227Z,2.97
2022-10-17T18:01:14.301Z,2.40
2022-10-17T18:03:44.726Z,2.40
2022-10-17T18:06:14.211Z,2.20
2022-10-17T18:08:46.445Z,3.20
2022-10-17T18:11:18.417Z,3.08
2022-10-17T18:13:50.918Z,3.15
2022-10-17T18:16:22.990Z,3.20
2022-10-17T18:18:52.785Z,2.85
2022-10-17T18:21:23.173Z,2.38
2022-10-17T18:23:53.339Z,3.25
2022-10-17T18:26:23.199Z,3.10
2022-10-17T18:28:52.744Z,3.40
2022-10-17T18:31:28.665Z,2.67
2022-10-17T18:34:00.173Z,3.10
2022-10-17T18:36:30.490Z,2.88
2022-10-17T18:39:00.056Z,3.60
2022-10-17T18:41:30.039Z,2.85
2022-10-17T18:44:00.076Z,2.60
2022-10-17T18:46:35.956Z,3.10
2022-10-17T18:49:06.067Z,2.53
2022-10-17T18:51:35.547Z,3.20
2022-10-17T18:54:05.089Z,3.38
2022-10-17T18:56:34.637Z,3.53
2022-10-17T18:59:04.166Z,3.65
2022-10-17T19:01:36.436Z,3.25
2022-10-17T19:04:06.004Z,2.13
2022-10-17T19:06:35.479Z,2.67
2022-10-17T19:09:06.497Z,2.53
2022-10-17T19:11:37.284Z,3.15
2022-10-17T19:14:13.044Z,2.72
2022-10-17T19:16:46.409Z,2.95
2022-10-17T19:19:17.145Z,3.10
2022-10-17T19:21:46.915Z,3.00
2022-10-17T19:24:17.908Z,2.53
2022-10-17T19:26:50.236Z,2.92
2022-10-17T19:29:20.653Z,2.97
2022-10-17T19:31:52.854Z,2.42
2022-10-17T19:34:22.707Z,2.60
2022-10-17T19:36:52.222Z,3.03
2022-10-17T19:39:23.015Z,3.42
2022-10-17T19:41:52.811Z,3.17
2022-10-17T19:44:22.304Z,5.50
2022-10-17T19:46:54.561Z,4.60
2022-10-17T19:49:24.285Z,4.53
2022-10-17T19:51:53.785Z,4.50
2022-10-17T19:54:23.599Z,4.00
2022-10-17T19:56:53.107Z,3.85
2022-10-17T19:59:22.632Z,3.60
2022-10-17T20:01:54.926Z,4.18
2022-10-17T20:04:24.767Z,3.90
2022-10-17T20:06:55.596Z,4.07
2022-10-17T20:09:25.327Z,3.53
2022-10-17T20:11:54.785Z,3.20
2022-10-17T20:14:24.345Z,3.28
2022-10-17T20:16:56.748Z,3.50
2022-10-17T20:19:26.399Z,3.90
2022-10-17T20:21:55.863Z,3.42
2022-10-17T20:24:25.302Z,4.03
2022-10-17T20:26:54.773Z,4.38
2022-10-17T20:29:24.239Z,3.78
2022-10-17T20:31:57.753Z,4.05
2022-10-17T20:34:27.822Z,3.92
2022-10-17T20:36:57.418Z,3.78
2022-10-17T20:39:26.930Z,4.28
2022-10-17T20:41:56.610Z,2.95
2022-10-17T20:44:26.131Z,3.35
2022-10-17T20:47:02.136Z,2.88
2022-10-17T20:49:32.564Z,3.67
2022-10-17T20:52:02.202Z,2.70
2022-10-17T20:54:31.677Z,4.13
2022-10-17T20:57:04.034Z,3.33
2022-10-17T20:59:35.265Z,3.08
2022-10-17T21:02:08.394Z,3.20
2022-10-17T21:04:46.713Z,3.55
2022-10-17T21:07:16.966Z,3.20
2022-10-17T21:09:46.640Z,3.47
2022-10-17T21:12:25.868Z,4.72
2022-10-17T21:15:01.108Z,4.20
2022-10-17T21:17:33.163Z,4.65
2022-10-17T21:20:02.832Z,4.20
2022-10-17T21:22:32.508Z,5.22
2022-10-17T21:25:02.161Z,4.55
2022-10-17T21:27:31.674Z,4.65
2022-10-17T21:30:01.349Z,4.45
2022-10-17T21:32:51.003Z,3.65
2022-10-17T21:35:21.486Z,3.83
2022-10-17T21:37:50.994Z,4.43
2022-10-17T21:40:20.522Z,4.03
2022-10-17T21:42:50.079Z,3.45
2022-10-17T21:45:25.888Z,3.45
2022-10-17T21:48:12.116Z,2.42
2022-10-17T21:50:41.974Z,3.40
2022-10-17T21:53:11.546Z,4.20
2022-10-17T21:55:41.141Z,3.45
2022-10-17T21:58:10.688Z,3.47
2022-10-17T22:00:40.223Z,3.38
2022-10-17T22:03:15.171Z,2.47
2022-10-17T22:05:44.646Z,3.35
2022-10-17T22:08:14.663Z,3.95
2022-10-17T22:10:44.211Z,3.78
2022-10-17T22:13:13.655Z,3.63
2022-10-17T22:15:43.116Z,3.60
2022-10-17T22:18:15.320Z,3.83
2022-10-17T22:20:44.960Z,5.60
2022-10-17T22:23:14.424Z,4.22
2022-10-17T22:25:43.928Z,4.30
2022-10-17T22:28:13.445Z,3.33
2022-10-17T22:30:43.012Z,3.97
2022-10-17T22:33:15.139Z,3.45
2022-10-17T22:35:45.515Z,4.18
2022-10-17T22:38:15.410Z,3.90
2022-10-17T22:40:46.374Z,4.20
2022-10-17T22:43:15.926Z,3.88
2022-10-17T22:45:45.479Z,4.37
2022-10-17T22:48:17.598Z,3.85
2022-10-17T22:50:47.184Z,3.30
2022-10-17T22:53:23.104Z,4.00
2022-10-17T22:55:53.472Z,3.17
2022-10-17T22:58:23.204Z,3.50
2022-10-17T23:00:53.415Z,3.75
2022-10-17T23:03:25.913Z,3.67
2022-10-17T23:05:55.433Z,3.63
2022-10-17T23:08:24.858Z,3.78
2022-10-17T23:10:54.645Z,3.42
2022-10-17T23:13:24.178Z,3.20
2022-10-17T23:15:54.599Z,3.92
2022-10-17T23:18:28.684Z,3.28
2022-10-17T23:20:58.334Z,3.90
2022-10-17T23:23:27.778Z,2.88
2022-10-17T23:25:57.283Z,3.67
2022-10-17T23:28:26.807Z,3.83
2022-10-17T23:30:56.270Z,3.88
2022-10-17T23:33:28.331Z,3.00
2022-10-17T23:35:57.847Z,3.13
2022-10-17T23:38:27.346Z,3.45
2022-10-17T23:40:56.837Z,3.25
2022-10-17T23:43:26.679Z,3.58
2022-10-17T23:45:56.228Z,3.40
2022-10-17T23:48:28.317Z,3.38
2022-10-17T23:50:58.210Z,3.30
2022-10-17T23:53:27.659Z,3.30
2022-10-17T23:55:57.114Z,3.25
2022-10-17T23:58:26.792Z,3.70
